SLM431 SMJP-TNCC
Flight info
| Callsign | SLM431 |
|---|---|
| Flight time | N/A |
| Altitude | 36000 |
| Route | ZY UG449 POS UP671 MEGIR UL219 BONAX BONAX1B |
| Aircraft | B738/M-SDGIJ1LRWY/SB1 |
Departure
| Time | 2026-04-28 18:14 |
|---|---|
| Airport | Johan Adolf Pengel International Airport (SMJP) |
Arrival
| Time | N/A |
|---|---|
| Airport | Hato International Airport (TNCC) |
| Time | Latitude | Longitude | Altitude | Speed | Heading |
|---|---|---|---|---|---|
| 2026-04-28 17:52 | 5.45572 | -55.19840 | 57 ft | 0 kts | 45° |
| 2026-04-28 18:07 | 5.45565 | -55.19848 | 57 ft | 2 kts | 44° |
| 2026-04-28 18:07 | 5.45554 | -55.19858 | 57 ft | 2 kts | 45° |
| 2026-04-28 18:07 | 5.45543 | -55.19869 | 57 ft | 2 kts | 44° |
| 2026-04-28 18:08 | 5.45532 | -55.19879 | 57 ft | 2 kts | 45° |
| 2026-04-28 18:08 | 5.45522 | -55.19890 | 57 ft | 2 kts | 44° |
| 2026-04-28 18:08 | 5.45516 | -55.19896 | 57 ft | 0 kts | 45° |
| 2026-04-28 18:11 | 5.45521 | -55.19887 | 57 ft | 5 kts | 71° |
| 2026-04-28 18:11 | 5.45489 | -55.19868 | 57 ft | 6 kts | 191° |
| 2026-04-28 18:11 | 5.45448 | -55.19905 | 57 ft | 10 kts | 257° |
| 2026-04-28 18:11 | 5.45444 | -55.19978 | 57 ft | 9 kts | 270° |
| 2026-04-28 18:12 | 5.45444 | -55.20051 | 57 ft | 11 kts | 268° |
| 2026-04-28 18:12 | 5.45440 | -55.20172 | 58 ft | 21 kts | 270° |
| 2026-04-28 18:12 | 5.45426 | -55.20318 | 58 ft | 19 kts | 237° |
| 2026-04-28 18:12 | 5.45313 | -55.20331 | 58 ft | 16 kts | 156° |
| 2026-04-28 18:13 | 5.45276 | -55.20251 | 58 ft | 0 kts | 90° |
| 2026-04-28 18:13 | 5.45276 | -55.20235 | 58 ft | 7 kts | 90° |
| 2026-04-28 18:13 | 5.45276 | -55.20160 | 58 ft | 22 kts | 89° |
| 2026-04-28 18:13 | 5.45277 | -55.19724 | 57 ft | 96 kts | 89° |
| 2026-04-28 18:14 | 5.45282 | -55.18829 | 59 ft | 154 kts | 89° |
| 2026-04-28 18:14 | 5.45260 | -55.17633 | 445 ft | 170 kts | 92° |
| 2026-04-28 18:14 | 5.44894 | -55.16540 | 1274 ft | 168 kts | 126° |
| 2026-04-28 18:14 | 5.43909 | -55.15873 | 1880 ft | 175 kts | 150° |
| 2026-04-28 18:15 | 5.42902 | -55.15227 | 2404 ft | 169 kts | 124° |
| 2026-04-28 18:15 | 5.42473 | -55.14136 | 2765 ft | 174 kts | 91° |
| 2026-04-28 18:15 | 5.42421 | -55.12922 | 3370 ft | 173 kts | 90° |
| 2026-04-28 18:15 | 5.42388 | -55.11691 | 3965 ft | 173 kts | 90° |
| 2026-04-28 18:16 | 5.42311 | -55.10503 | 4585 ft | 170 kts | 98° |
| 2026-04-28 18:16 | 5.41806 | -55.09372 | 5028 ft | 183 kts | 133° |
| 2026-04-28 18:16 | 5.40637 | -55.08715 | 5485 ft | 196 kts | 158° |
| 2026-04-28 18:16 | 5.39438 | -55.08145 | 6104 ft | 186 kts | 133° |
| 2026-04-28 18:17 | 5.38680 | -55.07021 | 6433 ft | 193 kts | 105° |
| 2026-04-28 18:17 | 5.38489 | -55.05764 | 7177 ft | 182 kts | 88° |
| 2026-04-28 18:17 | 5.38695 | -55.04358 | 6928 ft | 230 kts | 75° |
| 2026-04-28 18:17 | 5.39305 | -55.02721 | 6871 ft | 262 kts | 65° |
| 2026-04-28 18:18 | 5.40118 | -55.01233 | 8198 ft | 233 kts | 59° |
| 2026-04-28 18:18 | 5.40943 | -55.00042 | 9481 ft | 203 kts | 54° |
| 2026-04-28 18:18 | 5.41886 | -54.98883 | 9585 ft | 234 kts | 51° |
| 2026-04-28 18:18 | 5.42664 | -54.98009 | 9446 ft | 261 kts | 49° |
| 2026-04-28 18:19 | 5.44346 | -54.96233 | 10511 ft | 255 kts | 47° |
| 2026-04-28 18:19 | 5.45480 | -54.95091 | 11848 ft | 225 kts | 47° |
| 2026-04-28 18:19 | 5.46586 | -54.93979 | 12296 ft | 236 kts | 47° |
| 2026-04-28 18:19 | 5.47833 | -54.92678 | 12192 ft | 273 kts | 49° |
| 2026-04-28 18:20 | 5.49139 | -54.91244 | 12749 ft | 278 kts | 50° |
| 2026-04-28 18:20 | 5.50315 | -54.89877 | 14038 ft | 252 kts | 53° |
| 2026-04-28 18:20 | 5.51345 | -54.88549 | 14963 ft | 240 kts | 56° |
| 2026-04-28 18:20 | 5.52323 | -54.87100 | 15079 ft | 266 kts | 59° |
| 2026-04-28 18:21 | 5.53295 | -54.85418 | 15205 ft | 289 kts | 63° |
| 2026-04-28 18:21 | 5.54189 | -54.83647 | 16125 ft | 279 kts | 65° |
| 2026-04-28 18:21 | 5.54916 | -54.81988 | 17363 ft | 254 kts | 69° |
| 2026-04-28 18:21 | 5.55526 | -54.80352 | 17962 ft | 255 kts | 72° |
| 2026-04-28 18:22 | 5.56064 | -54.78556 | 17956 ft | 282 kts | 76° |
| 2026-04-28 18:22 | 5.56519 | -54.76565 | 18177 ft | 298 kts | 79° |
| 2026-04-28 18:22 | 5.56890 | -54.74560 | 18861 ft | 295 kts | 77° |
| 2026-04-28 18:22 | 5.57849 | -54.72649 | 18940 ft | 318 kts | 49° |
| 2026-04-28 18:23 | 5.59611 | -54.71220 | 19228 ft | 334 kts | 36° |
| 2026-04-28 18:23 | 5.61742 | -54.70126 | 19453 ft | 352 kts | 24° |
| 2026-04-28 18:23 | 5.64159 | -54.69452 | 19671 ft | 370 kts | 13° |
| 2026-04-28 18:23 | 5.66761 | -54.69244 | 19847 ft | 388 kts | 3° |
| 2026-04-28 18:24 | 5.69545 | -54.69477 | 20078 ft | 404 kts | 354° |
| 2026-04-28 18:24 | 5.71392 | -54.69908 | 20385 ft | 410 kts | 347° |
| 2026-04-28 18:24 | 5.74913 | -54.71419 | 21024 ft | 420 kts | 333° |
| 2026-04-28 18:24 | 5.77363 | -54.73117 | 21437 ft | 429 kts | 322° |
| 2026-04-28 18:25 | 5.79506 | -54.75220 | 21834 ft | 438 kts | 313° |
| 2026-04-28 18:25 | 5.81316 | -54.77724 | 22318 ft | 443 kts | 302° |
| 2026-04-28 18:25 | 5.82691 | -54.80467 | 22786 ft | 447 kts | 294° |
| 2026-04-28 18:26 | 5.84919 | -54.86342 | 23741 ft | 453 kts | 292° |
| 2026-04-28 18:26 | 5.86153 | -54.89278 | 24231 ft | 455 kts | 296° |
| 2026-04-28 18:26 | 5.87519 | -54.92104 | 24712 ft | 456 kts | 299° |
| 2026-04-28 18:26 | 5.89038 | -54.94912 | 25184 ft | 457 kts | 301° |
| 2026-04-28 18:27 | 5.90663 | -54.97686 | 25624 ft | 460 kts | 303° |
| 2026-04-28 18:27 | 5.92324 | -55.00380 | 26122 ft | 460 kts | 304° |
| 2026-04-28 18:27 | 5.94058 | -55.03112 | 26561 ft | 462 kts | 305° |
| 2026-04-28 18:27 | 5.95807 | -55.05824 | 26969 ft | 465 kts | 305° |
| 2026-04-28 18:28 | 5.97585 | -55.08558 | 27427 ft | 466 kts | 305° |
| 2026-04-28 18:28 | 5.99360 | -55.11282 | 27816 ft | 469 kts | 305° |
| 2026-04-28 18:28 | 6.01157 | -55.14040 | 28239 ft | 471 kts | 305° |
| 2026-04-28 18:28 | 6.02949 | -55.16795 | 28615 ft | 474 kts | 305° |
| 2026-04-28 18:29 | 6.04750 | -55.19562 | 29013 ft | 476 kts | 304° |
| 2026-04-28 18:29 | 6.06565 | -55.22356 | 29416 ft | 478 kts | 304° |
| 2026-04-28 18:29 | 6.08362 | -55.25123 | 29788 ft | 480 kts | 304° |
| 2026-04-28 18:29 | 6.10198 | -55.27953 | 30262 ft | 479 kts | 304° |
| 2026-04-28 18:30 | 6.11999 | -55.30730 | 30822 ft | 477 kts | 303° |
| 2026-04-28 18:30 | 6.12608 | -55.31671 | 31012 ft | 476 kts | 303° |
| 2026-04-28 18:30 | 6.15600 | -55.36286 | 31928 ft | 471 kts | 303° |
| 2026-04-28 18:30 | 6.17374 | -55.39024 | 32438 ft | 468 kts | 302° |
| 2026-04-28 18:31 | 6.19144 | -55.41758 | 32973 ft | 466 kts | 302° |
| 2026-04-28 18:31 | 6.20920 | -55.44499 | 33634 ft | 460 kts | 302° |
| 2026-04-28 18:31 | 6.22658 | -55.47184 | 34342 ft | 454 kts | 303° |
| 2026-04-28 18:31 | 6.24354 | -55.49804 | 34997 ft | 448 kts | 303° |
| 2026-04-28 18:32 | 6.26031 | -55.52395 | 35611 ft | 442 kts | 303° |
| 2026-04-28 18:32 | 6.27710 | -55.54991 | 35899 ft | 443 kts | 303° |
| 2026-04-28 18:32 | 6.29383 | -55.57579 | 35898 ft | 443 kts | 303° |
| 2026-04-28 18:33 | 6.32731 | -55.62758 | 35902 ft | 442 kts | 303° |
| 2026-04-28 18:33 | 6.36087 | -55.67947 | 35905 ft | 442 kts | 303° |
| 2026-04-28 18:34 | 6.39436 | -55.73126 | 35905 ft | 442 kts | 303° |
| 2026-04-28 18:34 | 6.42795 | -55.78321 | 35905 ft | 442 kts | 303° |
| 2026-04-28 18:35 | 6.46139 | -55.83493 | 35905 ft | 442 kts | 303° |
| 2026-04-28 18:35 | 6.49478 | -55.88662 | 35905 ft | 442 kts | 303° |
| 2026-04-28 18:36 | 6.52828 | -55.93849 | 35905 ft | 440 kts | 303° |
| 2026-04-28 18:36 | 6.56159 | -55.99005 | 35904 ft | 440 kts | 303° |
| 2026-04-28 18:37 | 6.59485 | -56.04158 | 35904 ft | 440 kts | 303° |
| 2026-04-28 18:37 | 6.62821 | -56.09328 | 35905 ft | 440 kts | 303° |
| 2026-04-28 18:38 | 6.66164 | -56.14508 | 35904 ft | 441 kts | 303° |
| 2026-04-28 18:38 | 6.69495 | -56.19675 | 35903 ft | 440 kts | 303° |
| 2026-04-28 18:39 | 6.72827 | -56.24842 | 35906 ft | 445 kts | 303° |
| 2026-04-28 18:39 | 6.76239 | -56.30132 | 35904 ft | 456 kts | 303° |
| 2026-04-28 18:40 | 6.79690 | -56.35486 | 36045 ft | 457 kts | 303° |
| 2026-04-28 18:40 | 6.81417 | -56.38166 | 36729 ft | 450 kts | 303° |
| 2026-04-28 18:40 | 6.83087 | -56.40759 | 37507 ft | 440 kts | 303° |
| 2026-04-28 18:40 | 6.84746 | -56.43337 | 37858 ft | 437 kts | 303° |
| 2026-04-28 18:41 | 6.86403 | -56.45911 | 37909 ft | 435 kts | 303° |
| 2026-04-28 18:41 | 6.89657 | -56.50967 | 37914 ft | 434 kts | 303° |
| 2026-04-28 18:42 | 6.92978 | -56.56126 | 37916 ft | 442 kts | 303° |
| 2026-04-28 18:42 | 6.96325 | -56.61327 | 37913 ft | 446 kts | 303° |
| 2026-04-28 18:43 | 6.99720 | -56.66605 | 37920 ft | 447 kts | 303° |
| 2026-04-28 18:43 | 7.03075 | -56.71823 | 37925 ft | 444 kts | 303° |
| 2026-04-28 18:44 | 7.06430 | -56.77043 | 37921 ft | 445 kts | 303° |
| 2026-04-28 18:44 | 7.11495 | -56.84927 | 37921 ft | 447 kts | 303° |
| 2026-04-28 18:45 | 7.14865 | -56.90172 | 37913 ft | 446 kts | 303° |
| 2026-04-28 18:45 | 7.18237 | -56.95424 | 37909 ft | 446 kts | 303° |
| 2026-04-28 18:46 | 7.21599 | -57.00661 | 37909 ft | 444 kts | 303° |
| 2026-04-28 18:46 | 7.24951 | -57.05886 | 37909 ft | 444 kts | 303° |
| 2026-04-28 18:47 | 7.28296 | -57.11101 | 37910 ft | 446 kts | 302° |
| 2026-04-28 18:47 | 7.31669 | -57.16359 | 37908 ft | 445 kts | 303° |
| 2026-04-28 18:48 | 7.35023 | -57.21590 | 37905 ft | 445 kts | 303° |
| 2026-04-28 18:48 | 7.38383 | -57.26833 | 37905 ft | 447 kts | 302° |
| 2026-04-28 18:49 | 7.40624 | -57.30331 | 37905 ft | 446 kts | 302° |
| 2026-04-28 18:49 | 7.45087 | -57.37300 | 37905 ft | 445 kts | 303° |
| 2026-04-28 18:50 | 7.48433 | -57.42527 | 37905 ft | 445 kts | 302° |
| 2026-04-28 18:50 | 7.51800 | -57.47787 | 37905 ft | 445 kts | 302° |
| 2026-04-28 18:51 | 7.55157 | -57.53035 | 37905 ft | 446 kts | 302° |
| 2026-04-28 18:51 | 7.58504 | -57.58269 | 37904 ft | 445 kts | 302° |
| 2026-04-28 18:52 | 7.61860 | -57.63518 | 37905 ft | 444 kts | 302° |
| 2026-04-28 18:52 | 7.65213 | -57.68765 | 37905 ft | 446 kts | 302° |
| 2026-04-28 18:53 | 7.68573 | -57.74022 | 37905 ft | 445 kts | 302° |
| 2026-04-28 18:53 | 7.71905 | -57.79238 | 37905 ft | 445 kts | 302° |
| 2026-04-28 18:54 | 7.75248 | -57.84475 | 37905 ft | 444 kts | 302° |
| 2026-04-28 18:54 | 7.78596 | -57.89722 | 37905 ft | 444 kts | 302° |
| 2026-04-28 18:55 | 7.81371 | -57.94071 | 37905 ft | 445 kts | 302° |
| 2026-04-28 18:55 | 7.85281 | -58.00203 | 37904 ft | 447 kts | 302° |
| 2026-04-28 18:56 | 7.88643 | -58.05476 | 37905 ft | 445 kts | 302° |
| 2026-04-28 18:56 | 7.91977 | -58.10707 | 37905 ft | 443 kts | 302° |
| 2026-04-28 18:57 | 7.95281 | -58.15892 | 38535 ft | 433 kts | 302° |
| 2026-04-28 18:57 | 7.96886 | -58.18411 | 39302 ft | 424 kts | 302° |
| 2026-04-28 18:57 | 7.98478 | -58.20910 | 39709 ft | 421 kts | 302° |
| 2026-04-28 18:58 | 8.00066 | -58.23405 | 39826 ft | 423 kts | 302° |
| 2026-04-28 18:58 | 8.01643 | -58.25883 | 39912 ft | 424 kts | 302° |
| 2026-04-28 18:58 | 8.04834 | -58.30901 | 39908 ft | 426 kts | 302° |
| 2026-04-28 18:59 | 8.08032 | -58.35928 | 39907 ft | 426 kts | 302° |
| 2026-04-28 18:59 | 8.11239 | -58.40971 | 39909 ft | 425 kts | 302° |
| 2026-04-28 19:00 | 8.14427 | -58.45983 | 39916 ft | 425 kts | 302° |
| 2026-04-28 19:00 | 8.17630 | -58.51022 | 39918 ft | 425 kts | 302° |
| 2026-04-28 19:01 | 8.20800 | -58.56009 | 39923 ft | 424 kts | 302° |
| 2026-04-28 19:01 | 8.24276 | -58.60872 | 39925 ft | 426 kts | 307° |
| 2026-04-28 19:02 | 8.28047 | -58.65515 | 39926 ft | 427 kts | 308° |
| 2026-04-28 19:02 | 8.31849 | -58.70119 | 39926 ft | 427 kts | 308° |
| 2026-04-28 19:03 | 8.35638 | -58.74748 | 39925 ft | 427 kts | 308° |
| 2026-04-28 19:03 | 8.39383 | -58.79362 | 39926 ft | 427 kts | 308° |
| 2026-04-28 19:04 | 8.43149 | -58.84024 | 39926 ft | 427 kts | 308° |
| 2026-04-28 19:04 | 8.46903 | -58.88679 | 39923 ft | 428 kts | 308° |
| 2026-04-28 19:05 | 8.50669 | -58.93355 | 39920 ft | 428 kts | 308° |
| 2026-04-28 19:05 | 8.54419 | -58.98013 | 39914 ft | 426 kts | 308° |
| 2026-04-28 19:06 | 8.57534 | -59.01887 | 39916 ft | 427 kts | 307° |
| 2026-04-28 19:06 | 8.61918 | -59.07338 | 39912 ft | 428 kts | 307° |
| 2026-04-28 19:07 | 8.65670 | -59.12002 | 39906 ft | 427 kts | 307° |
| 2026-04-28 19:07 | 8.69399 | -59.16641 | 39905 ft | 428 kts | 307° |
| 2026-04-28 19:08 | 8.73157 | -59.21316 | 39904 ft | 427 kts | 307° |
| 2026-04-28 19:08 | 8.76918 | -59.25998 | 39904 ft | 428 kts | 307° |
| 2026-04-28 19:09 | 8.80679 | -59.30683 | 39903 ft | 429 kts | 307° |
| 2026-04-28 19:09 | 8.84436 | -59.35360 | 39904 ft | 428 kts | 307° |
| 2026-04-28 19:10 | 8.88185 | -59.40032 | 39904 ft | 428 kts | 307° |
| 2026-04-28 19:10 | 8.91921 | -59.44689 | 39905 ft | 428 kts | 307° |
| 2026-04-28 19:11 | 8.95692 | -59.49391 | 39905 ft | 428 kts | 307° |
| 2026-04-28 19:11 | 8.99433 | -59.54060 | 39906 ft | 428 kts | 307° |
| 2026-04-28 19:12 | 9.03180 | -59.58738 | 39905 ft | 428 kts | 307° |
| 2026-04-28 19:12 | 9.06914 | -59.63401 | 39906 ft | 427 kts | 307° |
| 2026-04-28 19:13 | 9.10698 | -59.68129 | 39906 ft | 429 kts | 307° |
| 2026-04-28 19:13 | 9.14437 | -59.72800 | 39907 ft | 428 kts | 307° |
| 2026-04-28 19:14 | 9.18181 | -59.77481 | 39906 ft | 428 kts | 307° |
| 2026-04-28 19:14 | 9.21927 | -59.82165 | 39910 ft | 429 kts | 307° |
| 2026-04-28 19:15 | 9.25696 | -59.86881 | 39912 ft | 429 kts | 307° |
| 2026-04-28 19:15 | 9.28797 | -59.90761 | 39912 ft | 428 kts | 307° |
| 2026-04-28 19:16 | 9.33186 | -59.96257 | 39911 ft | 429 kts | 307° |
| 2026-04-28 19:16 | 9.36943 | -60.00962 | 39911 ft | 428 kts | 307° |
| 2026-04-28 19:17 | 9.40665 | -60.05626 | 39913 ft | 428 kts | 307° |
| 2026-04-28 19:17 | 9.44414 | -60.10326 | 39913 ft | 428 kts | 307° |
| 2026-04-28 19:18 | 9.48176 | -60.15044 | 39915 ft | 429 kts | 307° |
| 2026-04-28 19:18 | 9.51911 | -60.19728 | 39916 ft | 429 kts | 307° |
| 2026-04-28 19:19 | 9.55651 | -60.24421 | 39916 ft | 428 kts | 307° |
| 2026-04-28 19:19 | 9.59394 | -60.29118 | 39919 ft | 427 kts | 307° |
| 2026-04-28 19:20 | 9.63122 | -60.33801 | 39922 ft | 428 kts | 307° |
| 2026-04-28 19:20 | 9.66880 | -60.38524 | 39922 ft | 428 kts | 307° |
| 2026-04-28 19:21 | 9.70600 | -60.43196 | 39922 ft | 427 kts | 307° |
| 2026-04-28 19:21 | 9.74333 | -60.47890 | 39921 ft | 427 kts | 307° |
| 2026-04-28 19:22 | 9.77447 | -60.51806 | 39921 ft | 428 kts | 307° |
| 2026-04-28 19:22 | 9.81824 | -60.57315 | 39923 ft | 428 kts | 307° |
| 2026-04-28 19:23 | 9.85556 | -60.62014 | 39923 ft | 428 kts | 307° |
| 2026-04-28 19:23 | 9.89304 | -60.66732 | 39920 ft | 429 kts | 306° |
| 2026-04-28 19:24 | 9.93035 | -60.71431 | 39926 ft | 428 kts | 306° |
| 2026-04-28 19:24 | 9.96784 | -60.76157 | 39924 ft | 429 kts | 306° |
| 2026-04-28 19:25 | 10.00499 | -60.80840 | 39927 ft | 427 kts | 306° |
| 2026-04-28 19:25 | 10.04225 | -60.85540 | 39926 ft | 425 kts | 306° |
| 2026-04-28 19:26 | 10.07944 | -60.90235 | 39925 ft | 426 kts | 306° |
| 2026-04-28 19:26 | 10.11649 | -60.94913 | 39923 ft | 426 kts | 306° |
| 2026-04-28 19:27 | 10.15357 | -60.99595 | 39910 ft | 427 kts | 306° |
| 2026-04-28 19:27 | 10.19092 | -61.04314 | 39912 ft | 429 kts | 306° |
| 2026-04-28 19:28 | 10.22827 | -61.09033 | 39911 ft | 426 kts | 306° |
| 2026-04-28 19:28 | 10.26533 | -61.13720 | 39914 ft | 427 kts | 306° |
| 2026-04-28 19:29 | 10.29653 | -61.17665 | 39918 ft | 426 kts | 306° |
| 2026-04-28 19:29 | 10.33945 | -61.23096 | 39925 ft | 423 kts | 306° |
| 2026-04-28 19:30 | 10.37646 | -61.27782 | 39926 ft | 425 kts | 306° |
| 2026-04-28 19:30 | 10.41332 | -61.32455 | 39930 ft | 424 kts | 306° |
| 2026-04-28 19:31 | 10.44850 | -61.37260 | 39925 ft | 422 kts | 298° |
| 2026-04-28 19:31 | 10.46923 | -61.42794 | 39927 ft | 419 kts | 281° |
| 2026-04-28 19:32 | 10.47772 | -61.48629 | 39918 ft | 420 kts | 276° |
| 2026-04-28 19:32 | 10.48355 | -61.54527 | 39921 ft | 418 kts | 275° |
| 2026-04-28 19:33 | 10.48918 | -61.60405 | 39914 ft | 419 kts | 275° |
| 2026-04-28 19:33 | 10.49505 | -61.66268 | 39914 ft | 418 kts | 275° |
| 2026-04-28 19:34 | 10.50108 | -61.72146 | 39903 ft | 418 kts | 275° |
| 2026-04-28 19:34 | 10.50715 | -61.77995 | 39902 ft | 417 kts | 276° |
| 2026-04-28 19:35 | 10.51327 | -61.83868 | 39899 ft | 419 kts | 275° |
| 2026-04-28 19:35 | 10.52045 | -61.89717 | 39895 ft | 418 kts | 279° |
| 2026-04-28 19:36 | 10.53144 | -61.95512 | 39894 ft | 418 kts | 281° |
| 2026-04-28 19:36 | 10.54322 | -62.01255 | 39894 ft | 418 kts | 281° |
| 2026-04-28 19:37 | 10.55299 | -62.06089 | 39894 ft | 418 kts | 281° |
| 2026-04-28 19:37 | 10.56633 | -62.12834 | 39894 ft | 417 kts | 281° |
| 2026-04-28 19:38 | 10.57757 | -62.18610 | 39902 ft | 418 kts | 281° |
| 2026-04-28 19:38 | 10.58874 | -62.24385 | 39906 ft | 418 kts | 280° |
| 2026-04-28 19:39 | 10.59986 | -62.30148 | 39906 ft | 417 kts | 280° |
| 2026-04-28 19:39 | 10.61101 | -62.35943 | 39903 ft | 417 kts | 281° |
| 2026-04-28 19:40 | 10.62212 | -62.41714 | 39904 ft | 418 kts | 280° |
| 2026-04-28 19:40 | 10.63328 | -62.47517 | 39899 ft | 417 kts | 281° |
| 2026-04-28 19:41 | 10.64443 | -62.53324 | 39898 ft | 419 kts | 281° |
| 2026-04-28 19:41 | 10.65555 | -62.59121 | 39899 ft | 417 kts | 281° |
| 2026-04-28 19:42 | 10.66659 | -62.64882 | 39904 ft | 419 kts | 281° |
| 2026-04-28 19:42 | 10.67593 | -62.69762 | 39902 ft | 417 kts | 280° |
| 2026-04-28 19:43 | 10.68886 | -62.76518 | 39901 ft | 417 kts | 280° |
| 2026-04-28 19:43 | 10.69987 | -62.82285 | 39899 ft | 417 kts | 280° |
| 2026-04-28 19:44 | 10.71090 | -62.88060 | 39900 ft | 417 kts | 280° |
| 2026-04-28 19:44 | 10.72195 | -62.93857 | 39895 ft | 417 kts | 280° |
| 2026-04-28 19:45 | 10.73299 | -62.99651 | 39896 ft | 419 kts | 280° |
| 2026-04-28 19:45 | 10.74404 | -63.05462 | 39894 ft | 419 kts | 280° |
| 2026-04-28 19:46 | 10.75502 | -63.11239 | 39895 ft | 417 kts | 280° |
| 2026-04-28 19:46 | 10.76602 | -63.17036 | 39897 ft | 419 kts | 281° |
| 2026-04-28 19:47 | 10.77702 | -63.22838 | 39896 ft | 418 kts | 280° |
| 2026-04-28 19:47 | 10.78804 | -63.28655 | 39893 ft | 418 kts | 281° |
| 2026-04-28 19:48 | 10.79895 | -63.34419 | 39890 ft | 417 kts | 281° |
| 2026-04-28 19:48 | 10.80990 | -63.40204 | 39890 ft | 418 kts | 280° |
| 2026-04-28 19:49 | 10.82088 | -63.46021 | 39888 ft | 418 kts | 280° |
| 2026-04-28 19:49 | 10.83182 | -63.51821 | 39888 ft | 418 kts | 280° |
| 2026-04-28 19:50 | 10.84819 | -63.60510 | 39894 ft | 418 kts | 281° |
| 2026-04-28 19:51 | 10.85913 | -63.66325 | 39893 ft | 418 kts | 280° |
| 2026-04-28 19:51 | 10.87010 | -63.72163 | 39894 ft | 418 kts | 281° |
| 2026-04-28 19:52 | 10.88098 | -63.77961 | 39899 ft | 418 kts | 280° |
| 2026-04-28 19:52 | 10.89188 | -63.83772 | 39895 ft | 418 kts | 280° |
| 2026-04-28 19:53 | 10.90278 | -63.89590 | 39895 ft | 419 kts | 280° |
| 2026-04-28 19:53 | 10.91364 | -63.95389 | 39894 ft | 419 kts | 281° |
| 2026-04-28 19:54 | 10.92660 | -64.01134 | 39904 ft | 418 kts | 284° |
| 2026-04-28 19:54 | 10.94162 | -64.06874 | 39901 ft | 419 kts | 284° |
| 2026-04-28 19:55 | 10.95659 | -64.12569 | 39902 ft | 418 kts | 284° |
| 2026-04-28 19:55 | 10.97130 | -64.18272 | 39907 ft | 418 kts | 284° |
| 2026-04-28 19:56 | 10.98592 | -64.24012 | 39906 ft | 418 kts | 284° |
| 2026-04-28 19:56 | 11.00037 | -64.29723 | 39905 ft | 418 kts | 284° |
| 2026-04-28 19:57 | 11.01484 | -64.35465 | 39898 ft | 418 kts | 284° |
| 2026-04-28 19:57 | 11.02922 | -64.41180 | 39895 ft | 419 kts | 284° |
| 2026-04-28 19:58 | 11.04367 | -64.46925 | 39890 ft | 418 kts | 284° |
| 2026-04-28 19:58 | 11.05799 | -64.52625 | 39888 ft | 418 kts | 283° |
| 2026-04-28 19:59 | 11.07241 | -64.58366 | 39885 ft | 418 kts | 284° |
| 2026-04-28 19:59 | 11.08711 | -64.64088 | 39887 ft | 418 kts | 285° |
| 2026-04-28 20:00 | 11.09547 | -64.66906 | 39885 ft | 418 kts | 287° |